sensor_id;sensor_type;location;lat;lon;timestamp;P1;durP1;ratioP1;P2;durP2;ratioP2
16354;SDS011;8287;51.644;8.494;2023-12-20T00:01:35;9.07;;;7.10;;
16354;SDS011;8287;51.644;8.494;2023-12-20T00:04:02;7.00;;;5.32;;
16354;SDS011;8287;51.644;8.494;2023-12-20T00:06:29;4.38;;;3.60;;
16354;SDS011;8287;51.644;8.494;2023-12-20T00:08:56;3.03;;;2.45;;
16354;SDS011;8287;51.644;8.494;2023-12-20T00:11:23;3.88;;;1.95;;
16354;SDS011;8287;51.644;8.494;2023-12-20T00:13:53;2.80;;;1.80;;
16354;SDS011;8287;51.644;8.494;2023-12-20T00:16:20;3.70;;;1.65;;
16354;SDS011;8287;51.644;8.494;2023-12-20T00:18:47;1.92;;;1.58;;
16354;SDS011;8287;51.644;8.494;2023-12-20T00:21:13;1.90;;;1.33;;
16354;SDS011;8287;51.644;8.494;2023-12-20T00:23:40;1.95;;;1.27;;
16354;SDS011;8287;51.644;8.494;2023-12-20T00:26:06;4.07;;;1.30;;
16354;SDS011;8287;51.644;8.494;2023-12-20T00:28:33;2.70;;;1.50;;
16354;SDS011;8287;51.644;8.494;2023-12-20T00:31:01;1.55;;;1.08;;
16354;SDS011;8287;51.644;8.494;2023-12-20T00:33:28;7.22;;;2.08;;
16354;SDS011;8287;51.644;8.494;2023-12-20T00:35:54;5.72;;;2.40;;
16354;SDS011;8287;51.644;8.494;2023-12-20T00:38:21;2.75;;;1.95;;
16354;SDS011;8287;51.644;8.494;2023-12-20T00:40:47;4.05;;;1.85;;
16354;SDS011;8287;51.644;8.494;2023-12-20T00:43:14;2.90;;;2.30;;
16354;SDS011;8287;51.644;8.494;2023-12-20T00:45:41;3.22;;;2.50;;
16354;SDS011;8287;51.644;8.494;2023-12-20T00:48:09;5.85;;;2.90;;
16354;SDS011;8287;51.644;8.494;2023-12-20T00:50:36;3.70;;;2.20;;
16354;SDS011;8287;51.644;8.494;2023-12-20T00:53:02;5.28;;;2.75;;
16354;SDS011;8287;51.644;8.494;2023-12-20T00:55:30;3.03;;;2.72;;
16354;SDS011;8287;51.644;8.494;2023-12-20T00:57:57;3.38;;;2.47;;
16354;SDS011;8287;51.644;8.494;2023-12-20T01:00:24;4.10;;;2.85;;
16354;SDS011;8287;51.644;8.494;2023-12-20T01:02:51;2.95;;;2.45;;
16354;SDS011;8287;51.644;8.494;2023-12-20T01:05:19;5.00;;;3.17;;
16354;SDS011;8287;51.644;8.494;2023-12-20T01:07:48;4.32;;;2.47;;
16354;SDS011;8287;51.644;8.494;2023-12-20T01:10:15;4.05;;;2.83;;
16354;SDS011;8287;51.644;8.494;2023-12-20T01:12:42;4.38;;;2.90;;
16354;SDS011;8287;51.644;8.494;2023-12-20T01:15:09;4.07;;;2.75;;
16354;SDS011;8287;51.644;8.494;2023-12-20T01:17:36;5.47;;;2.53;;
16354;SDS011;8287;51.644;8.494;2023-12-20T01:20:03;5.03;;;2.55;;
16354;SDS011;8287;51.644;8.494;2023-12-20T01:22:32;4.30;;;2.72;;
16354;SDS011;8287;51.644;8.494;2023-12-20T01:25:00;4.43;;;3.08;;
16354;SDS011;8287;51.644;8.494;2023-12-20T01:27:27;4.82;;;2.95;;
16354;SDS011;8287;51.644;8.494;2023-12-20T01:29:55;4.45;;;3.55;;
16354;SDS011;8287;51.644;8.494;2023-12-20T01:32:21;4.28;;;3.17;;
16354;SDS011;8287;51.644;8.494;2023-12-20T01:34:48;5.18;;;3.78;;
16354;SDS011;8287;51.644;8.494;2023-12-20T01:37:15;6.93;;;4.60;;
16354;SDS011;8287;51.644;8.494;2023-12-20T01:39:43;6.85;;;4.70;;
16354;SDS011;8287;51.644;8.494;2023-12-20T01:42:10;7.78;;;5.93;;
16354;SDS011;8287;51.644;8.494;2023-12-20T01:44:37;10.18;;;5.70;;
16354;SDS011;8287;51.644;8.494;2023-12-20T01:47:04;8.82;;;6.00;;
16354;SDS011;8287;51.644;8.494;2023-12-20T01:49:30;9.27;;;6.57;;
16354;SDS011;8287;51.644;8.494;2023-12-20T01:51:57;10.63;;;7.00;;
16354;SDS011;8287;51.644;8.494;2023-12-20T01:54:24;11.95;;;6.35;;
16354;SDS011;8287;51.644;8.494;2023-12-20T01:56:52;9.60;;;6.15;;
16354;SDS011;8287;51.644;8.494;2023-12-20T01:59:19;9.60;;;6.63;;
16354;SDS011;8287;51.644;8.494;2023-12-20T02:01:47;9.23;;;6.90;;
16354;SDS011;8287;51.644;8.494;2023-12-20T02:04:13;10.40;;;8.10;;
16354;SDS011;8287;51.644;8.494;2023-12-20T02:06:41;13.55;;;8.15;;
16354;SDS011;8287;51.644;8.494;2023-12-20T02:09:09;16.80;;;8.45;;
16354;SDS011;8287;51.644;8.494;2023-12-20T02:11:36;11.80;;;7.93;;
16354;SDS011;8287;51.644;8.494;2023-12-20T02:14:05;15.35;;;7.82;;
16354;SDS011;8287;51.644;8.494;2023-12-20T02:16:32;12.00;;;7.25;;
16354;SDS011;8287;51.644;8.494;2023-12-20T02:18:58;11.40;;;6.93;;
16354;SDS011;8287;51.644;8.494;2023-12-20T02:21:31;13.05;;;6.70;;
16354;SDS011;8287;51.644;8.494;2023-12-20T02:23:58;11.85;;;6.70;;
16354;SDS011;8287;51.644;8.494;2023-12-20T02:26:24;11.30;;;5.75;;
16354;SDS011;8287;51.644;8.494;2023-12-20T02:28:51;7.43;;;4.97;;
16354;SDS011;8287;51.644;8.494;2023-12-20T02:31:20;13.52;;;4.68;;
16354;SDS011;8287;51.644;8.494;2023-12-20T02:33:47;9.40;;;4.85;;
16354;SDS011;8287;51.644;8.494;2023-12-20T02:36:13;8.25;;;4.82;;
16354;SDS011;8287;51.644;8.494;2023-12-20T02:38:41;8.43;;;4.50;;
16354;SDS011;8287;51.644;8.494;2023-12-20T02:41:08;11.02;;;4.82;;
16354;SDS011;8287;51.644;8.494;2023-12-20T02:43:35;8.18;;;4.10;;
16354;SDS011;8287;51.644;8.494;2023-12-20T02:46:01;7.35;;;4.07;;
16354;SDS011;8287;51.644;8.494;2023-12-20T02:48:28;6.65;;;4.38;;
16354;SDS011;8287;51.644;8.494;2023-12-20T02:50:54;7.22;;;4.75;;
16354;SDS011;8287;51.644;8.494;2023-12-20T02:53:21;9.07;;;4.97;;
16354;SDS011;8287;51.644;8.494;2023-12-20T02:55:49;8.60;;;4.82;;
16354;SDS011;8287;51.644;8.494;2023-12-20T02:58:16;8.95;;;4.28;;
16354;SDS011;8287;51.644;8.494;2023-12-20T03:00:43;9.57;;;3.97;;
16354;SDS011;8287;51.644;8.494;2023-12-20T03:03:10;7.20;;;4.50;;
16354;SDS011;8287;51.644;8.494;2023-12-20T03:05:36;12.95;;;3.58;;
16354;SDS011;8287;51.644;8.494;2023-12-20T03:08:03;11.07;;;4.28;;
16354;SDS011;8287;51.644;8.494;2023-12-20T03:10:30;10.70;;;3.90;;
16354;SDS011;8287;51.644;8.494;2023-12-20T03:12:58;8.88;;;4.60;;
16354;SDS011;8287;51.644;8.494;2023-12-20T03:15:25;7.78;;;4.60;;
16354;SDS011;8287;51.644;8.494;2023-12-20T03:17:51;6.22;;;4.03;;
16354;SDS011;8287;51.644;8.494;2023-12-20T03:20:18;7.30;;;4.50;;
16354;SDS011;8287;51.644;8.494;2023-12-20T03:22:45;7.28;;;4.63;;
16354;SDS011;8287;51.644;8.494;2023-12-20T03:25:11;11.98;;;4.82;;
16354;SDS011;8287;51.644;8.494;2023-12-20T03:27:38;11.52;;;5.18;;
16354;SDS011;8287;51.644;8.494;2023-12-20T03:30:07;11.43;;;3.78;;
16354;SDS011;8287;51.644;8.494;2023-12-20T03:32:34;7.88;;;4.13;;
16354;SDS011;8287;51.644;8.494;2023-12-20T03:35:00;11.77;;;4.55;;
16354;SDS011;8287;51.644;8.494;2023-12-20T03:37:27;10.27;;;4.82;;
16354;SDS011;8287;51.644;8.494;2023-12-20T03:39:54;11.88;;;4.80;;
16354;SDS011;8287;51.644;8.494;2023-12-20T03:42:21;11.13;;;4.03;;
16354;SDS011;8287;51.644;8.494;2023-12-20T03:44:47;8.90;;;4.95;;
16354;SDS011;8287;51.644;8.494;2023-12-20T03:47:16;4.60;;;3.47;;
16354;SDS011;8287;51.644;8.494;2023-12-20T03:49:42;9.80;;;4.38;;
16354;SDS011;8287;51.644;8.494;2023-12-20T03:52:09;7.18;;;3.55;;
16354;SDS011;8287;51.644;8.494;2023-12-20T03:54:36;10.63;;;3.55;;
16354;SDS011;8287;51.644;8.494;2023-12-20T03:57:03;10.90;;;3.78;;
16354;SDS011;8287;51.644;8.494;2023-12-20T03:59:30;9.50;;;3.78;;
16354;SDS011;8287;51.644;8.494;2023-12-20T04:02:00;6.22;;;3.70;;
16354;SDS011;8287;51.644;8.494;2023-12-20T04:04:28;8.68;;;4.03;;
16354;SDS011;8287;51.644;8.494;2023-12-20T04:06:55;11.00;;;4.47;;
16354;SDS011;8287;51.644;8.494;2023-12-20T04:09:22;10.82;;;3.58;;
16354;SDS011;8287;51.644;8.494;2023-12-20T04:11:48;11.98;;;3.80;;
16354;SDS011;8287;51.644;8.494;2023-12-20T04:14:15;10.30;;;3.13;;
16354;SDS011;8287;51.644;8.494;2023-12-20T04:16:42;10.65;;;3.40;;
16354;SDS011;8287;51.644;8.494;2023-12-20T04:19:08;7.20;;;3.17;;
16354;SDS011;8287;51.644;8.494;2023-12-20T04:21:36;4.82;;;3.00;;
16354;SDS011;8287;51.644;8.494;2023-12-20T04:24:03;7.18;;;4.18;;
16354;SDS011;8287;51.644;8.494;2023-12-20T04:26:30;7.13;;;2.83;;
16354;SDS011;8287;51.644;8.494;2023-12-20T04:28:57;7.47;;;3.40;;
16354;SDS011;8287;51.644;8.494;2023-12-20T04:31:24;8.63;;;3.67;;
16354;SDS011;8287;51.644;8.494;2023-12-20T04:33:50;14.60;;;3.50;;
16354;SDS011;8287;51.644;8.494;2023-12-20T04:36:17;16.50;;;3.85;;
16354;SDS011;8287;51.644;8.494;2023-12-20T04:38:45;8.27;;;3.88;;
16354;SDS011;8287;51.644;8.494;2023-12-20T04:41:12;11.02;;;3.78;;
16354;SDS011;8287;51.644;8.494;2023-12-20T04:43:40;8.00;;;3.42;;
16354;SDS011;8287;51.644;8.494;2023-12-20T04:46:07;10.88;;;3.58;;
16354;SDS011;8287;51.644;8.494;2023-12-20T04:48:34;14.00;;;4.45;;
16354;SDS011;8287;51.644;8.494;2023-12-20T04:51:00;12.70;;;3.75;;
16354;SDS011;8287;51.644;8.494;2023-12-20T04:53:27;15.73;;;3.28;;
16354;SDS011;8287;51.644;8.494;2023-12-20T04:55:55;6.25;;;3.42;;
16354;SDS011;8287;51.644;8.494;2023-12-20T04:58:22;13.98;;;3.92;;
16354;SDS011;8287;51.644;8.494;2023-12-20T05:00:49;10.43;;;3.35;;
16354;SDS011;8287;51.644;8.494;2023-12-20T05:03:15;11.45;;;4.25;;
16354;SDS011;8287;51.644;8.494;2023-12-20T05:05:42;12.73;;;3.70;;
16354;SDS011;8287;51.644;8.494;2023-12-20T05:08:09;9.35;;;3.67;;
16354;SDS011;8287;51.644;8.494;2023-12-20T05:10:35;6.25;;;3.15;;
16354;SDS011;8287;51.644;8.494;2023-12-20T05:13:04;13.35;;;4.18;;
16354;SDS011;8287;51.644;8.494;2023-12-20T05:15:30;8.82;;;3.47;;
16354;SDS011;8287;51.644;8.494;2023-12-20T05:17:57;12.45;;;3.80;;
16354;SDS011;8287;51.644;8.494;2023-12-20T05:20:24;8.65;;;3.42;;
16354;SDS011;8287;51.644;8.494;2023-12-20T05:22:51;10.80;;;3.78;;
16354;SDS011;8287;51.644;8.494;2023-12-20T05:25:17;11.48;;;3.78;;
16354;SDS011;8287;51.644;8.494;2023-12-20T05:27:44;13.73;;;3.70;;
16354;SDS011;8287;51.644;8.494;2023-12-20T05:30:12;7.80;;;3.95;;
16354;SDS011;8287;51.644;8.494;2023-12-20T05:32:40;9.45;;;4.07;;
16354;SDS011;8287;51.644;8.494;2023-12-20T05:35:06;20.67;;;3.97;;
16354;SDS011;8287;51.644;8.494;2023-12-20T05:37:33;9.75;;;3.95;;
16354;SDS011;8287;51.644;8.494;2023-12-20T05:40:00;11.65;;;4.20;;
16354;SDS011;8287;51.644;8.494;2023-12-20T05:42:26;10.85;;;4.13;;
16354;SDS011;8287;51.644;8.494;2023-12-20T05:44:53;16.77;;;4.70;;
16354;SDS011;8287;51.644;8.494;2023-12-20T05:47:21;13.32;;;5.70;;
16354;SDS011;8287;51.644;8.494;2023-12-20T05:49:48;10.38;;;4.47;;
16354;SDS011;8287;51.644;8.494;2023-12-20T05:52:15;8.50;;;3.83;;
16354;SDS011;8287;51.644;8.494;2023-12-20T05:54:42;12.27;;;4.18;;
16354;SDS011;8287;51.644;8.494;2023-12-20T05:57:08;14.48;;;4.93;;
16354;SDS011;8287;51.644;8.494;2023-12-20T05:59:35;10.25;;;4.63;;
16354;SDS011;8287;51.644;8.494;2023-12-20T06:02:03;18.25;;;4.90;;
16354;SDS011;8287;51.644;8.494;2023-12-20T06:04:31;8.82;;;5.05;;
16354;SDS011;8287;51.644;8.494;2023-12-20T06:06:58;16.75;;;6.22;;
16354;SDS011;8287;51.644;8.494;2023-12-20T06:09:26;14.00;;;4.82;;
16354;SDS011;8287;51.644;8.494;2023-12-20T06:11:53;16.33;;;4.97;;
16354;SDS011;8287;51.644;8.494;2023-12-20T06:14:20;14.65;;;5.63;;
16354;SDS011;8287;51.644;8.494;2023-12-20T06:16:46;11.93;;;5.47;;
16354;SDS011;8287;51.644;8.494;2023-12-20T06:19:13;16.88;;;6.03;;
16354;SDS011;8287;51.644;8.494;2023-12-20T06:21:41;19.90;;;6.68;;
16354;SDS011;8287;51.644;8.494;2023-12-20T06:24:08;16.45;;;6.82;;
16354;SDS011;8287;51.644;8.494;2023-12-20T06:26:34;11.38;;;5.40;;
16354;SDS011;8287;51.644;8.494;2023-12-20T06:29:01;15.32;;;6.18;;
16354;SDS011;8287;51.644;8.494;2023-12-20T06:31:28;10.65;;;5.78;;
16354;SDS011;8287;51.644;8.494;2023-12-20T06:33:54;10.73;;;5.95;;
16354;SDS011;8287;51.644;8.494;2023-12-20T06:36:22;14.70;;;5.90;;
16354;SDS011;8287;51.644;8.494;2023-12-20T06:38:49;15.40;;;6.50;;
16354;SDS011;8287;51.644;8.494;2023-12-20T06:41:16;15.95;;;6.40;;
16354;SDS011;8287;51.644;8.494;2023-12-20T06:43:43;12.90;;;6.22;;
16354;SDS011;8287;51.644;8.494;2023-12-20T06:46:15;15.23;;;6.53;;
16354;SDS011;8287;51.644;8.494;2023-12-20T06:48:42;11.30;;;5.90;;
16354;SDS011;8287;51.644;8.494;2023-12-20T06:51:10;18.38;;;5.18;;
16354;SDS011;8287;51.644;8.494;2023-12-20T06:53:38;13.50;;;4.97;;
16354;SDS011;8287;51.644;8.494;2023-12-20T06:56:08;22.77;;;5.65;;
16354;SDS011;8287;51.644;8.494;2023-12-20T06:58:37;16.30;;;5.75;;
16354;SDS011;8287;51.644;8.494;2023-12-20T07:01:03;16.35;;;5.40;;
16354;SDS011;8287;51.644;8.494;2023-12-20T07:03:30;16.35;;;5.05;;
16354;SDS011;8287;51.644;8.494;2023-12-20T07:05:57;18.67;;;5.13;;
16354;SDS011;8287;51.644;8.494;2023-12-20T07:08:24;16.17;;;5.18;;
16354;SDS011;8287;51.644;8.494;2023-12-20T07:10:51;15.27;;;5.63;;
16354;SDS011;8287;51.644;8.494;2023-12-20T07:13:21;14.82;;;5.70;;
16354;SDS011;8287;51.644;8.494;2023-12-20T07:15:48;13.82;;;6.07;;
16354;SDS011;8287;51.644;8.494;2023-12-20T07:18:15;20.08;;;6.53;;
16354;SDS011;8287;51.644;8.494;2023-12-20T07:20:42;23.73;;;5.95;;
16354;SDS011;8287;51.644;8.494;2023-12-20T07:23:10;15.63;;;5.80;;
16354;SDS011;8287;51.644;8.494;2023-12-20T07:25:37;20.40;;;5.25;;
16354;SDS011;8287;51.644;8.494;2023-12-20T07:28:04;13.88;;;5.22;;
16354;SDS011;8287;51.644;8.494;2023-12-20T07:30:33;6.10;;;4.45;;
16354;SDS011;8287;51.644;8.494;2023-12-20T07:32:59;15.52;;;5.00;;
16354;SDS011;8287;51.644;8.494;2023-12-20T07:35:27;17.27;;;4.80;;
16354;SDS011;8287;51.644;8.494;2023-12-20T07:37:54;20.02;;;5.03;;
16354;SDS011;8287;51.644;8.494;2023-12-20T07:40:21;12.13;;;4.70;;
16354;SDS011;8287;51.644;8.494;2023-12-20T07:42:48;14.73;;;5.95;;
16354;SDS011;8287;51.644;8.494;2023-12-20T07:45:15;12.10;;;5.28;;
16354;SDS011;8287;51.644;8.494;2023-12-20T07:47:43;10.13;;;4.53;;
16354;SDS011;8287;51.644;8.494;2023-12-20T07:50:10;11.63;;;4.70;;
16354;SDS011;8287;51.644;8.494;2023-12-20T07:52:37;18.40;;;5.22;;
16354;SDS011;8287;51.644;8.494;2023-12-20T07:55:03;15.35;;;5.13;;
16354;SDS011;8287;51.644;8.494;2023-12-20T07:57:31;15.20;;;5.70;;
16354;SDS011;8287;51.644;8.494;2023-12-20T07:59:57;15.95;;;5.25;;
16354;SDS011;8287;51.644;8.494;2023-12-20T08:02:24;21.55;;;5.55;;
16354;SDS011;8287;51.644;8.494;2023-12-20T08:04:52;18.77;;;4.78;;
16354;SDS011;8287;51.644;8.494;2023-12-20T08:07:19;12.43;;;4.70;;
16354;SDS011;8287;51.644;8.494;2023-12-20T08:09:46;11.20;;;4.63;;
16354;SDS011;8287;51.644;8.494;2023-12-20T08:12:12;19.88;;;5.95;;
16354;SDS011;8287;51.644;8.494;2023-12-20T08:14:39;12.38;;;5.30;;
16354;SDS011;8287;51.644;8.494;2023-12-20T08:17:06;14.27;;;4.82;;
16354;SDS011;8287;51.644;8.494;2023-12-20T08:19:33;12.23;;;5.10;;
16354;SDS011;8287;51.644;8.494;2023-12-20T08:22:01;14.40;;;4.93;;
16354;SDS011;8287;51.644;8.494;2023-12-20T08:24:28;15.40;;;5.57;;
16354;SDS011;8287;51.644;8.494;2023-12-20T08:26:55;12.80;;;5.18;;
16354;SDS011;8287;51.644;8.494;2023-12-20T08:29:22;14.60;;;4.85;;
16354;SDS011;8287;51.644;8.494;2023-12-20T08:31:51;9.85;;;4.25;;
16354;SDS011;8287;51.644;8.494;2023-12-20T08:34:18;12.68;;;3.90;;
16354;SDS011;8287;51.644;8.494;2023-12-20T08:36:45;12.73;;;4.43;;
16354;SDS011;8287;51.644;8.494;2023-12-20T08:39:13;14.82;;;5.55;;
16354;SDS011;8287;51.644;8.494;2023-12-20T08:41:40;10.40;;;3.70;;
16354;SDS011;8287;51.644;8.494;2023-12-20T08:44:06;12.23;;;3.88;;
16354;SDS011;8287;51.644;8.494;2023-12-20T08:46:33;14.98;;;4.57;;
16354;SDS011;8287;51.644;8.494;2023-12-20T08:49:00;14.23;;;4.55;;
16354;SDS011;8287;51.644;8.494;2023-12-20T08:51:27;6.60;;;3.50;;
16354;SDS011;8287;51.644;8.494;2023-12-20T08:53:54;17.73;;;4.78;;
16354;SDS011;8287;51.644;8.494;2023-12-20T08:56:22;10.80;;;3.97;;
16354;SDS011;8287;51.644;8.494;2023-12-20T08:58:49;9.77;;;3.95;;
16354;SDS011;8287;51.644;8.494;2023-12-20T09:01:15;8.93;;;4.60;;
16354;SDS011;8287;51.644;8.494;2023-12-20T09:03:42;12.65;;;4.38;;
16354;SDS011;8287;51.644;8.494;2023-12-20T09:06:09;13.15;;;4.95;;
16354;SDS011;8287;51.644;8.494;2023-12-20T09:08:35;10.23;;;4.05;;
16354;SDS011;8287;51.644;8.494;2023-12-20T09:11:02;12.55;;;4.20;;
16354;SDS011;8287;51.644;8.494;2023-12-20T09:13:31;14.35;;;4.07;;
16354;SDS011;8287;51.644;8.494;2023-12-20T09:15:57;9.05;;;3.65;;
16354;SDS011;8287;51.644;8.494;2023-12-20T09:18:24;14.70;;;4.35;;
16354;SDS011;8287;51.644;8.494;2023-12-20T09:20:51;12.18;;;4.38;;
16354;SDS011;8287;51.644;8.494;2023-12-20T09:23:17;10.05;;;4.55;;
16354;SDS011;8287;51.644;8.494;2023-12-20T09:25:44;9.68;;;4.82;;
16354;SDS011;8287;51.644;8.494;2023-12-20T09:28:11;12.02;;;4.28;;
16354;SDS011;8287;51.644;8.494;2023-12-20T09:30:41;13.73;;;4.15;;
16354;SDS011;8287;51.644;8.494;2023-12-20T09:33:10;9.65;;;4.72;;
16354;SDS011;8287;51.644;8.494;2023-12-20T09:35:36;13.13;;;4.10;;
16354;SDS011;8287;51.644;8.494;2023-12-20T09:38:03;11.40;;;4.97;;
16354;SDS011;8287;51.644;8.494;2023-12-20T09:40:30;18.20;;;4.60;;
16354;SDS011;8287;51.644;8.494;2023-12-20T09:43:01;14.75;;;4.72;;
16354;SDS011;8287;51.644;8.494;2023-12-20T09:45:30;14.52;;;5.63;;
16354;SDS011;8287;51.644;8.494;2023-12-20T09:47:59;14.50;;;5.57;;
16354;SDS011;8287;51.644;8.494;2023-12-20T09:50:26;16.40;;;5.60;;
16354;SDS011;8287;51.644;8.494;2023-12-20T09:52:55;14.80;;;4.65;;
16354;SDS011;8287;51.644;8.494;2023-12-20T09:55:24;11.90;;;4.82;;
16354;SDS011;8287;51.644;8.494;2023-12-20T09:57:52;10.52;;;4.65;;
16354;SDS011;8287;51.644;8.494;2023-12-20T10:00:18;10.70;;;4.63;;
16354;SDS011;8287;51.644;8.494;2023-12-20T10:02:48;15.35;;;5.50;;
16354;SDS011;8287;51.644;8.494;2023-12-20T10:05:19;10.43;;;4.75;;
16354;SDS011;8287;51.644;8.494;2023-12-20T10:07:52;8.95;;;4.07;;
16354;SDS011;8287;51.644;8.494;2023-12-20T10:10:19;10.57;;;4.70;;
16354;SDS011;8287;51.644;8.494;2023-12-20T10:13:00;9.95;;;4.47;;
16354;SDS011;8287;51.644;8.494;2023-12-20T10:15:28;18.42;;;5.03;;
16354;SDS011;8287;51.644;8.494;2023-12-20T10:17:55;9.60;;;4.70;;
16354;SDS011;8287;51.644;8.494;2023-12-20T10:20:23;6.85;;;3.63;;
16354;SDS011;8287;51.644;8.494;2023-12-20T10:22:50;9.38;;;3.83;;
16354;SDS011;8287;51.644;8.494;2023-12-20T10:25:18;10.45;;;4.82;;
16354;SDS011;8287;51.644;8.494;2023-12-20T10:27:45;14.82;;;4.85;;
16354;SDS011;8287;51.644;8.494;2023-12-20T10:30:12;11.18;;;4.15;;
16354;SDS011;8287;51.644;8.494;2023-12-20T10:32:39;15.68;;;5.07;;
16354;SDS011;8287;51.644;8.494;2023-12-20T10:35:06;11.98;;;5.38;;
16354;SDS011;8287;51.644;8.494;2023-12-20T10:37:36;13.70;;;5.13;;
16354;SDS011;8287;51.644;8.494;2023-12-20T10:40:03;13.32;;;4.05;;
16354;SDS011;8287;51.644;8.494;2023-12-20T10:42:31;8.13;;;4.78;;
16354;SDS011;8287;51.644;8.494;2023-12-20T10:44:59;14.15;;;5.45;;
16354;SDS011;8287;51.644;8.494;2023-12-20T10:47:26;15.68;;;5.03;;
16354;SDS011;8287;51.644;8.494;2023-12-20T10:49:54;14.15;;;5.18;;
16354;SDS011;8287;51.644;8.494;2023-12-20T10:52:22;12.65;;;4.50;;
16354;SDS011;8287;51.644;8.494;2023-12-20T10:54:51;11.98;;;5.10;;
16354;SDS011;8287;51.644;8.494;2023-12-20T10:57:18;13.82;;;5.35;;
16354;SDS011;8287;51.644;8.494;2023-12-20T10:59:44;16.65;;;5.07;;
16354;SDS011;8287;51.644;8.494;2023-12-20T11:02:12;16.05;;;4.38;;
16354;SDS011;8287;51.644;8.494;2023-12-20T11:04:42;22.40;;;4.68;;
16354;SDS011;8287;51.644;8.494;2023-12-20T11:07:17;18.13;;;5.25;;
16354;SDS011;8287;51.644;8.494;2023-12-20T11:09:49;15.35;;;4.47;;
16354;SDS011;8287;51.644;8.494;2023-12-20T11:12:29;8.65;;;4.28;;
16354;SDS011;8287;51.644;8.494;2023-12-20T11:15:04;9.20;;;5.00;;
16354;SDS011;8287;51.644;8.494;2023-12-20T11:17:32;12.73;;;5.07;;
16354;SDS011;8287;51.644;8.494;2023-12-20T11:20:06;14.80;;;4.63;;
16354;SDS011;8287;51.644;8.494;2023-12-20T11:22:35;6.40;;;4.88;;
16354;SDS011;8287;51.644;8.494;2023-12-20T11:25:06;10.80;;;4.45;;
16354;SDS011;8287;51.644;8.494;2023-12-20T11:27:34;12.27;;;4.75;;
16354;SDS011;8287;51.644;8.494;2023-12-20T11:30:02;12.60;;;4.72;;
16354;SDS011;8287;51.644;8.494;2023-12-20T11:32:32;16.27;;;4.72;;
16354;SDS011;8287;51.644;8.494;2023-12-20T11:35:00;16.40;;;5.03;;
16354;SDS011;8287;51.644;8.494;2023-12-20T11:37:42;9.65;;;5.45;;
16354;SDS011;8287;51.644;8.494;2023-12-20T11:40:13;10.52;;;5.38;;
16354;SDS011;8287;51.644;8.494;2023-12-20T11:42:41;14.95;;;6.07;;
16354;SDS011;8287;51.644;8.494;2023-12-20T11:45:09;9.60;;;5.40;;
16354;SDS011;8287;51.644;8.494;2023-12-20T11:47:36;9.75;;;5.35;;
16354;SDS011;8287;51.644;8.494;2023-12-20T11:50:04;15.05;;;5.18;;
16354;SDS011;8287;51.644;8.494;2023-12-20T11:52:32;11.32;;;3.95;;
16354;SDS011;8287;51.644;8.494;2023-12-20T11:54:59;12.27;;;4.97;;
16354;SDS011;8287;51.644;8.494;2023-12-20T11:57:27;9.73;;;4.97;;
16354;SDS011;8287;51.644;8.494;2023-12-20T11:59:54;11.40;;;4.18;;
16354;SDS011;8287;51.644;8.494;2023-12-20T12:02:21;17.25;;;5.97;;
16354;SDS011;8287;51.644;8.494;2023-12-20T12:04:48;10.85;;;5.53;;
16354;SDS011;8287;51.644;8.494;2023-12-20T12:07:16;10.38;;;5.32;;
16354;SDS011;8287;51.644;8.494;2023-12-20T12:09:43;11.07;;;6.10;;
16354;SDS011;8287;51.644;8.494;2023-12-20T12:12:10;16.35;;;5.10;;
16354;SDS011;8287;51.644;8.494;2023-12-20T12:14:39;14.45;;;5.75;;
16354;SDS011;8287;51.644;8.494;2023-12-20T12:17:09;10.52;;;6.15;;
16354;SDS011;8287;51.644;8.494;2023-12-20T12:19:36;13.90;;;5.70;;
16354;SDS011;8287;51.644;8.494;2023-12-20T12:22:06;17.92;;;7.15;;
16354;SDS011;8287;51.644;8.494;2023-12-20T12:24:37;14.98;;;7.70;;
16354;SDS011;8287;51.644;8.494;2023-12-20T12:27:05;10.07;;;6.53;;
16354;SDS011;8287;51.644;8.494;2023-12-20T12:29:33;12.73;;;5.75;;
16354;SDS011;8287;51.644;8.494;2023-12-20T12:32:01;14.20;;;7.15;;
16354;SDS011;8287;51.644;8.494;2023-12-20T12:34:31;13.70;;;5.80;;
16354;SDS011;8287;51.644;8.494;2023-12-20T12:36:59;12.05;;;5.03;;
16354;SDS011;8287;51.644;8.494;2023-12-20T12:39:26;12.65;;;6.28;;
16354;SDS011;8287;51.644;8.494;2023-12-20T12:41:54;18.75;;;5.72;;
16354;SDS011;8287;51.644;8.494;2023-12-20T12:44:22;14.80;;;5.25;;
16354;SDS011;8287;51.644;8.494;2023-12-20T12:46:50;14.88;;;5.82;;
16354;SDS011;8287;51.644;8.494;2023-12-20T12:49:19;9.75;;;5.60;;
16354;SDS011;8287;51.644;8.494;2023-12-20T12:51:47;8.30;;;4.22;;
16354;SDS011;8287;51.644;8.494;2023-12-20T12:54:14;13.35;;;4.68;;
16354;SDS011;8287;51.644;8.494;2023-12-20T12:56:43;9.15;;;5.05;;
16354;SDS011;8287;51.644;8.494;2023-12-20T12:59:12;13.70;;;6.05;;
16354;SDS011;8287;51.644;8.494;2023-12-20T13:01:44;9.57;;;4.93;;
16354;SDS011;8287;51.644;8.494;2023-12-20T13:04:11;9.15;;;4.10;;
16354;SDS011;8287;51.644;8.494;2023-12-20T13:06:39;12.48;;;4.60;;
16354;SDS011;8287;51.644;8.494;2023-12-20T13:09:07;11.68;;;4.15;;
16354;SDS011;8287;51.644;8.494;2023-12-20T13:11:34;11.85;;;4.30;;
16354;SDS011;8287;51.644;8.494;2023-12-20T13:14:01;8.52;;;4.35;;
16354;SDS011;8287;51.644;8.494;2023-12-20T13:16:28;14.85;;;4.82;;
16354;SDS011;8287;51.644;8.494;2023-12-20T13:18:55;8.20;;;4.05;;
16354;SDS011;8287;51.644;8.494;2023-12-20T13:21:22;11.13;;;5.82;;
16354;SDS011;8287;51.644;8.494;2023-12-20T13:23:50;12.80;;;5.20;;
16354;SDS011;8287;51.644;8.494;2023-12-20T13:26:19;8.75;;;4.93;;
16354;SDS011;8287;51.644;8.494;2023-12-20T13:28:45;12.30;;;5.43;;
16354;SDS011;8287;51.644;8.494;2023-12-20T13:31:12;8.75;;;5.35;;
16354;SDS011;8287;51.644;8.494;2023-12-20T13:33:38;6.97;;;4.88;;
16354;SDS011;8287;51.644;8.494;2023-12-20T13:36:05;13.27;;;5.00;;
16354;SDS011;8287;51.644;8.494;2023-12-20T13:38:32;13.65;;;6.25;;
16354;SDS011;8287;51.644;8.494;2023-12-20T13:41:01;9.50;;;6.72;;
16354;SDS011;8287;51.644;8.494;2023-12-20T13:43:27;13.05;;;5.60;;
16354;SDS011;8287;51.644;8.494;2023-12-20T13:45:54;11.52;;;5.95;;
16354;SDS011;8287;51.644;8.494;2023-12-20T13:48:21;10.13;;;4.40;;
16354;SDS011;8287;51.644;8.494;2023-12-20T13:50:50;19.13;;;5.80;;
16354;SDS011;8287;51.644;8.494;2023-12-20T13:53:17;6.93;;;4.82;;
16354;SDS011;8287;51.644;8.494;2023-12-20T13:55:44;9.38;;;5.00;;
16354;SDS011;8287;51.644;8.494;2023-12-20T13:58:12;14.60;;;5.30;;
16354;SDS011;8287;51.644;8.494;2023-12-20T14:00:39;15.43;;;5.15;;
16354;SDS011;8287;51.644;8.494;2023-12-20T14:03:06;14.07;;;7.70;;
16354;SDS011;8287;51.644;8.494;2023-12-20T14:05:35;9.15;;;5.93;;
16354;SDS011;8287;51.644;8.494;2023-12-20T14:08:02;11.35;;;6.57;;
16354;SDS011;8287;51.644;8.494;2023-12-20T14:10:29;6.95;;;5.05;;
16354;SDS011;8287;51.644;8.494;2023-12-20T14:12:56;10.20;;;5.60;;
16354;SDS011;8287;51.644;8.494;2023-12-20T14:15:24;9.77;;;5.38;;
16354;SDS011;8287;51.644;8.494;2023-12-20T14:17:51;10.30;;;5.57;;
16354;SDS011;8287;51.644;8.494;2023-12-20T14:20:18;12.55;;;5.28;;
16354;SDS011;8287;51.644;8.494;2023-12-20T14:22:44;10.45;;;6.05;;
16354;SDS011;8287;51.644;8.494;2023-12-20T14:25:11;12.45;;;6.55;;
16354;SDS011;8287;51.644;8.494;2023-12-20T14:27:38;10.60;;;6.22;;
16354;SDS011;8287;51.644;8.494;2023-12-20T14:30:06;15.50;;;6.40;;
16354;SDS011;8287;51.644;8.494;2023-12-20T14:32:35;10.02;;;5.90;;
16354;SDS011;8287;51.644;8.494;2023-12-20T14:35:04;19.60;;;5.28;;
16354;SDS011;8287;51.644;8.494;2023-12-20T14:37:31;8.40;;;5.30;;
16354;SDS011;8287;51.644;8.494;2023-12-20T14:39:58;15.65;;;5.88;;
16354;SDS011;8287;51.644;8.494;2023-12-20T14:42:25;11.15;;;6.43;;
16354;SDS011;8287;51.644;8.494;2023-12-20T14:44:51;9.95;;;6.35;;
16354;SDS011;8287;51.644;8.494;2023-12-20T14:47:19;13.60;;;6.45;;
16354;SDS011;8287;51.644;8.494;2023-12-20T14:49:47;10.73;;;7.05;;
16354;SDS011;8287;51.644;8.494;2023-12-20T14:52:14;16.50;;;5.45;;
16354;SDS011;8287;51.644;8.494;2023-12-20T14:54:42;14.63;;;5.65;;